sensor_id;sensor_type;location;lat;lon;timestamp;temperature;humidity
9820;DHT22;4949;48.482;9.206;2022-09-20T00:03:44;9.20;74.10
9820;DHT22;4949;48.482;9.206;2022-09-20T00:08:48;9.20;74.30
9820;DHT22;4949;48.482;9.206;2022-09-20T00:13:51;9.10;74.80
9820;DHT22;4949;48.482;9.206;2022-09-20T00:18:55;9.00;75.00
9820;DHT22;4949;48.482;9.206;2022-09-20T00:23:57;9.00;75.70
9820;DHT22;4949;48.482;9.206;2022-09-20T00:28:58;8.90;75.30
9820;DHT22;4949;48.482;9.206;2022-09-20T00:33:59;8.90;75.20
9820;DHT22;4949;48.482;9.206;2022-09-20T00:39:19;8.70;75.10
9820;DHT22;4949;48.482;9.206;2022-09-20T00:49:54;8.70;75.10
9820;DHT22;4949;48.482;9.206;2022-09-20T00:54:58;8.70;75.10
9820;DHT22;4949;48.482;9.206;2022-09-20T01:00:03;8.70;75.00
9820;DHT22;4949;48.482;9.206;2022-09-20T01:05:07;8.50;74.90
9820;DHT22;4949;48.482;9.206;2022-09-20T01:10:11;8.60;75.10
9820;DHT22;4949;48.482;9.206;2022-09-20T01:15:14;8.60;75.60
9820;DHT22;4949;48.482;9.206;2022-09-20T01:20:17;8.40;76.00
9820;DHT22;4949;48.482;9.206;2022-09-20T01:31:20;8.40;75.80
9820;DHT22;4949;48.482;9.206;2022-09-20T01:36:30;8.30;75.60
9820;DHT22;4949;48.482;9.206;2022-09-20T01:41:47;8.40;75.40
9820;DHT22;4949;48.482;9.206;2022-09-20T01:47:02;7.90;74.90
9820;DHT22;4949;48.482;9.206;2022-09-20T02:30:37;7.90;77.00
9820;DHT22;4949;48.482;9.206;2022-09-20T03:20:45;8.00;77.20
9820;DHT22;4949;48.482;9.206;2022-09-20T03:42:28;7.80;77.50
9820;DHT22;4949;48.482;9.206;2022-09-20T03:53:38;7.60;77.50
9820;DHT22;4949;48.482;9.206;2022-09-20T04:04:49;7.60;78.10
9820;DHT22;4949;48.482;9.206;2022-09-20T04:26:51;7.60;79.10
9820;DHT22;4949;48.482;9.206;2022-09-20T04:37:27;7.70;79.40
9820;DHT22;4949;48.482;9.206;2022-09-20T04:48:35;7.80;79.10
9820;DHT22;4949;48.482;9.206;2022-09-20T05:32:44;8.10;79.00
9820;DHT22;4949;48.482;9.206;2022-09-20T05:38:12;8.10;79.20
9820;DHT22;4949;48.482;9.206;2022-09-20T05:43:31;8.10;79.50
9820;DHT22;4949;48.482;9.206;2022-09-20T06:05:12;8.40;79.20
9820;DHT22;4949;48.482;9.206;2022-09-20T06:15:53;8.40;79.00
9820;DHT22;4949;48.482;9.206;2022-09-20T06:21:24;8.40;78.50
9820;DHT22;4949;48.482;9.206;2022-09-20T06:26:34;8.50;78.40
9820;DHT22;4949;48.482;9.206;2022-09-20T06:31:39;8.50;78.40
9820;DHT22;4949;48.482;9.206;2022-09-20T06:36:49;8.40;79.60
9820;DHT22;4949;48.482;9.206;2022-09-20T06:42:10;8.50;80.40
9820;DHT22;4949;48.482;9.206;2022-09-20T06:47:13;8.60;81.50
9820;DHT22;4949;48.482;9.206;2022-09-20T06:52:19;8.70;81.70
9820;DHT22;4949;48.482;9.206;2022-09-20T06:57:34;8.70;81.70
9820;DHT22;4949;48.482;9.206;2022-09-20T07:02:38;8.80;82.00
9820;DHT22;4949;48.482;9.206;2022-09-20T07:07:42;9.00;82.20
9820;DHT22;4949;48.482;9.206;2022-09-20T07:12:43;9.00;82.10
9820;DHT22;4949;48.482;9.206;2022-09-20T07:17:46;9.20;82.50
9820;DHT22;4949;48.482;9.206;2022-09-20T07:22:48;9.30;82.20
9820;DHT22;4949;48.482;9.206;2022-09-20T07:27:52;9.50;82.40
9820;DHT22;4949;48.482;9.206;2022-09-20T07:32:55;9.50;81.50
9820;DHT22;4949;48.482;9.206;2022-09-20T07:37:57;9.70;81.20
9820;DHT22;4949;48.482;9.206;2022-09-20T07:43:01;9.80;82.00
9820;DHT22;4949;48.482;9.206;2022-09-20T07:48:05;9.90;81.20
9820;DHT22;4949;48.482;9.206;2022-09-20T07:53:08;10.00;78.30
9820;DHT22;4949;48.482;9.206;2022-09-20T07:58:09;10.00;78.40
9820;DHT22;4949;48.482;9.206;2022-09-20T08:03:15;10.20;77.20
9820;DHT22;4949;48.482;9.206;2022-09-20T08:08:17;10.20;76.80
9820;DHT22;4949;48.482;9.206;2022-09-20T08:13:20;10.50;77.20
9820;DHT22;4949;48.482;9.206;2022-09-20T08:18:21;10.50;76.80
9820;DHT22;4949;48.482;9.206;2022-09-20T08:23:22;10.80;76.40
9820;DHT22;4949;48.482;9.206;2022-09-20T08:28:22;10.60;75.80
9820;DHT22;4949;48.482;9.206;2022-09-20T08:33:25;10.80;75.80
9820;DHT22;4949;48.482;9.206;2022-09-20T08:38:27;11.00;75.90
9820;DHT22;4949;48.482;9.206;2022-09-20T08:48:59;11.20;75.30
9820;DHT22;4949;48.482;9.206;2022-09-20T08:54:05;11.30;73.50
9820;DHT22;4949;48.482;9.206;2022-09-20T08:59:18;11.40;74.10
9820;DHT22;4949;48.482;9.206;2022-09-20T09:04:22;11.50;71.60
9820;DHT22;4949;48.482;9.206;2022-09-20T09:09:25;11.50;70.50
9820;DHT22;4949;48.482;9.206;2022-09-20T09:14:32;11.60;71.10
9820;DHT22;4949;48.482;9.206;2022-09-20T09:19:55;11.80;70.50
9820;DHT22;4949;48.482;9.206;2022-09-20T09:25:23;12.00;68.80
9820;DHT22;4949;48.482;9.206;2022-09-20T09:30:32;12.00;66.90
9820;DHT22;4949;48.482;9.206;2022-09-20T09:35:34;12.10;67.90
9820;DHT22;4949;48.482;9.206;2022-09-20T09:40:36;12.30;67.10
9820;DHT22;4949;48.482;9.206;2022-09-20T09:45:38;12.30;65.60
9820;DHT22;4949;48.482;9.206;2022-09-20T09:50:42;12.40;65.80
9820;DHT22;4949;48.482;9.206;2022-09-20T10:01:17;12.90;62.90
9820;DHT22;4949;48.482;9.206;2022-09-20T10:06:35;13.10;63.20
9820;DHT22;4949;48.482;9.206;2022-09-20T10:11:51;13.20;61.20
9820;DHT22;4949;48.482;9.206;2022-09-20T10:17:17;13.20;60.20
9820;DHT22;4949;48.482;9.206;2022-09-20T10:28:09;13.50;59.80
9820;DHT22;4949;48.482;9.206;2022-09-20T10:44:11;13.50;59.10
9820;DHT22;4949;48.482;9.206;2022-09-20T11:11:49;13.70;54.50
9820;DHT22;4949;48.482;9.206;2022-09-20T11:17:06;13.80;54.00
9820;DHT22;4949;48.482;9.206;2022-09-20T11:22:42;14.00;54.30
9820;DHT22;4949;48.482;9.206;2022-09-20T11:39:32;14.10;51.80
9820;DHT22;4949;48.482;9.206;2022-09-20T11:44:38;14.00;51.90
9820;DHT22;4949;48.482;9.206;2022-09-20T11:55:46;14.30;54.20
9820;DHT22;4949;48.482;9.206;2022-09-20T12:00:52;14.40;54.30
9820;DHT22;4949;48.482;9.206;2022-09-20T12:06:01;14.60;54.70
9820;DHT22;4949;48.482;9.206;2022-09-20T12:11:08;14.80;54.00
9820;DHT22;4949;48.482;9.206;2022-09-20T12:16:17;14.80;54.10
9820;DHT22;4949;48.482;9.206;2022-09-20T12:27:18;14.90;52.90
9820;DHT22;4949;48.482;9.206;2022-09-20T12:32:40;14.90;51.90
9820;DHT22;4949;48.482;9.206;2022-09-20T12:37:42;15.10;52.10
9820;DHT22;4949;48.482;9.206;2022-09-20T12:42:43;15.40;51.90
9820;DHT22;4949;48.482;9.206;2022-09-20T12:47:54;15.40;50.20
9820;DHT22;4949;48.482;9.206;2022-09-20T12:52:58;15.80;49.10
9820;DHT22;4949;48.482;9.206;2022-09-20T13:03:25;16.60;47.40
9820;DHT22;4949;48.482;9.206;2022-09-20T13:14:38;16.80;47.80
9820;DHT22;4949;48.482;9.206;2022-09-20T13:19:46;16.80;46.80
9820;DHT22;4949;48.482;9.206;2022-09-20T13:24:51;17.00;46.40
9820;DHT22;4949;48.482;9.206;2022-09-20T13:35:25;16.90;46.80
9820;DHT22;4949;48.482;9.206;2022-09-20T13:40:41;16.90;47.00
9820;DHT22;4949;48.482;9.206;2022-09-20T13:45:43;17.00;46.60
9820;DHT22;4949;48.482;9.206;2022-09-20T13:50:46;17.50;45.50
9820;DHT22;4949;48.482;9.206;2022-09-20T13:55:50;17.90;42.30
9820;DHT22;4949;48.482;9.206;2022-09-20T14:00:56;18.30;42.10
9820;DHT22;4949;48.482;9.206;2022-09-20T14:05:59;18.60;40.10
9820;DHT22;4949;48.482;9.206;2022-09-20T14:11:18;18.80;40.20
9820;DHT22;4949;48.482;9.206;2022-09-20T14:16:26;18.90;39.60
9820;DHT22;4949;48.482;9.206;2022-09-20T14:21:33;18.90;39.50
9820;DHT22;4949;48.482;9.206;2022-09-20T14:26:39;18.60;40.80
9820;DHT22;4949;48.482;9.206;2022-09-20T14:31:44;18.00;41.50
9820;DHT22;4949;48.482;9.206;2022-09-20T14:36:48;17.90;42.30
9820;DHT22;4949;48.482;9.206;2022-09-20T14:41:49;17.60;42.50
9820;DHT22;4949;48.482;9.206;2022-09-20T14:46:52;17.30;43.70
9820;DHT22;4949;48.482;9.206;2022-09-20T14:52:21;17.00;44.00
9820;DHT22;4949;48.482;9.206;2022-09-20T14:57:25;16.80;44.30
9820;DHT22;4949;48.482;9.206;2022-09-20T15:02:27;16.80;44.20
9820;DHT22;4949;48.482;9.206;2022-09-20T15:07:30;16.60;43.00
9820;DHT22;4949;48.482;9.206;2022-09-20T15:12:31;16.50;43.00
9820;DHT22;4949;48.482;9.206;2022-09-20T15:17:34;16.40;43.60
9820;DHT22;4949;48.482;9.206;2022-09-20T15:22:40;16.40;43.70
9820;DHT22;4949;48.482;9.206;2022-09-20T15:27:44;16.30;43.70
9820;DHT22;4949;48.482;9.206;2022-09-20T15:32:51;16.20;44.10
9820;DHT22;4949;48.482;9.206;2022-09-20T15:37:52;16.20;45.00
9820;DHT22;4949;48.482;9.206;2022-09-20T15:42:56;16.00;45.40
9820;DHT22;4949;48.482;9.206;2022-09-20T15:47:59;16.00;46.20
9820;DHT22;4949;48.482;9.206;2022-09-20T15:53:00;16.00;46.30
9820;DHT22;4949;48.482;9.206;2022-09-20T15:58:03;16.10;46.30
9820;DHT22;4949;48.482;9.206;2022-09-20T16:03:04;16.50;45.70
9820;DHT22;4949;48.482;9.206;2022-09-20T16:08:07;16.80;44.70
9820;DHT22;4949;48.482;9.206;2022-09-20T16:13:08;16.80;44.70
9820;DHT22;4949;48.482;9.206;2022-09-20T16:18:11;16.90;43.80
9820;DHT22;4949;48.482;9.206;2022-09-20T16:23:30;16.70;42.70
9820;DHT22;4949;48.482;9.206;2022-09-20T16:28:31;17.00;42.20
9820;DHT22;4949;48.482;9.206;2022-09-20T16:33:35;17.30;42.20
9820;DHT22;4949;48.482;9.206;2022-09-20T16:38:36;17.20;42.00
9820;DHT22;4949;48.482;9.206;2022-09-20T16:43:37;16.80;43.40
9820;DHT22;4949;48.482;9.206;2022-09-20T16:48:42;16.50;44.40
9820;DHT22;4949;48.482;9.206;2022-09-20T16:53:44;16.40;45.10
9820;DHT22;4949;48.482;9.206;2022-09-20T16:58:48;16.20;46.00
9820;DHT22;4949;48.482;9.206;2022-09-20T17:03:49;16.10;46.30
9820;DHT22;4949;48.482;9.206;2022-09-20T17:08:54;15.90;46.90
9820;DHT22;4949;48.482;9.206;2022-09-20T17:13:56;15.80;47.50
9820;DHT22;4949;48.482;9.206;2022-09-20T17:18:59;15.70;48.30
9820;DHT22;4949;48.482;9.206;2022-09-20T17:24:04;15.50;48.40
9820;DHT22;4949;48.482;9.206;2022-09-20T17:29:09;15.40;49.00
9820;DHT22;4949;48.482;9.206;2022-09-20T17:34:16;15.30;49.40
9820;DHT22;4949;48.482;9.206;2022-09-20T17:39:18;15.20;49.40
9820;DHT22;4949;48.482;9.206;2022-09-20T17:44:19;15.10;49.70
9820;DHT22;4949;48.482;9.206;2022-09-20T17:49:21;15.00;49.80
9820;DHT22;4949;48.482;9.206;2022-09-20T17:54:23;15.00;49.70
9820;DHT22;4949;48.482;9.206;2022-09-20T17:59:23;15.00;50.40
9820;DHT22;4949;48.482;9.206;2022-09-20T18:04:26;15.10;50.60
9820;DHT22;4949;48.482;9.206;2022-09-20T18:09:27;14.90;50.50
9820;DHT22;4949;48.482;9.206;2022-09-20T18:14:30;14.80;50.30
9820;DHT22;4949;48.482;9.206;2022-09-20T18:19:31;14.80;50.60
9820;DHT22;4949;48.482;9.206;2022-09-20T18:24:33;14.70;51.20
9820;DHT22;4949;48.482;9.206;2022-09-20T18:29:34;14.60;51.00
9820;DHT22;4949;48.482;9.206;2022-09-20T18:34:36;14.60;51.70
9820;DHT22;4949;48.482;9.206;2022-09-20T18:39:37;14.50;51.40
9820;DHT22;4949;48.482;9.206;2022-09-20T18:44:42;14.50;53.30
9820;DHT22;4949;48.482;9.206;2022-09-20T18:49:43;14.30;54.80
9820;DHT22;4949;48.482;9.206;2022-09-20T18:54:43;14.20;55.80
9820;DHT22;4949;48.482;9.206;2022-09-20T18:59:46;14.30;56.70
9820;DHT22;4949;48.482;9.206;2022-09-20T19:26:22;13.70;58.50
9820;DHT22;4949;48.482;9.206;2022-09-20T19:31:27;13.60;58.80
9820;DHT22;4949;48.482;9.206;2022-09-20T19:52:48;13.30;61.00
9820;DHT22;4949;48.482;9.206;2022-09-20T19:57:56;13.20;61.30
9820;DHT22;4949;48.482;9.206;2022-09-20T20:03:00;13.10;61.70
9820;DHT22;4949;48.482;9.206;2022-09-20T20:08:59;13.10;61.70
9820;DHT22;4949;48.482;9.206;2022-09-20T20:29:49;12.90;60.10
9820;DHT22;4949;48.482;9.206;2022-09-20T20:34:50;12.80;60.40
9820;DHT22;4949;48.482;9.206;2022-09-20T20:39:55;12.70;61.70
9820;DHT22;4949;48.482;9.206;2022-09-20T20:44:58;12.60;62.90
9820;DHT22;4949;48.482;9.206;2022-09-20T20:49:59;12.50;63.40
9820;DHT22;4949;48.482;9.206;2022-09-20T20:55:00;12.40;64.00
9820;DHT22;4949;48.482;9.206;2022-09-20T21:00:03;12.30;64.90
9820;DHT22;4949;48.482;9.206;2022-09-20T21:05:05;12.10;65.50
9820;DHT22;4949;48.482;9.206;2022-09-20T21:10:11;12.00;66.00
9820;DHT22;4949;48.482;9.206;2022-09-20T21:15:12;11.90;67.00
9820;DHT22;4949;48.482;9.206;2022-09-20T21:20:16;11.80;66.60
9820;DHT22;4949;48.482;9.206;2022-09-20T21:25:19;11.70;66.80
9820;DHT22;4949;48.482;9.206;2022-09-20T21:30:20;11.70;67.30
9820;DHT22;4949;48.482;9.206;2022-09-20T21:35:21;11.60;67.80
9820;DHT22;4949;48.482;9.206;2022-09-20T21:40:23;11.50;68.00
9820;DHT22;4949;48.482;9.206;2022-09-20T21:45:28;11.60;68.50
9820;DHT22;4949;48.482;9.206;2022-09-20T21:50:29;11.30;68.50
9820;DHT22;4949;48.482;9.206;2022-09-20T21:55:30;11.20;69.00
9820;DHT22;4949;48.482;9.206;2022-09-20T22:00:31;11.00;68.80
9820;DHT22;4949;48.482;9.206;2022-09-20T22:05:33;10.90;69.10
9820;DHT22;4949;48.482;9.206;2022-09-20T22:10:36;10.80;69.30
9820;DHT22;4949;48.482;9.206;2022-09-20T22:15:42;10.80;69.50
9820;DHT22;4949;48.482;9.206;2022-09-20T22:20:45;10.70;70.70
9820;DHT22;4949;48.482;9.206;2022-09-20T22:25:46;10.60;70.70
9820;DHT22;4949;48.482;9.206;2022-09-20T22:30:49;10.60;71.10
9820;DHT22;4949;48.482;9.206;2022-09-20T22:35:53;10.60;70.60
9820;DHT22;4949;48.482;9.206;2022-09-20T22:40:55;10.60;70.50
9820;DHT22;4949;48.482;9.206;2022-09-20T22:46:08;10.50;69.80
9820;DHT22;4949;48.482;9.206;2022-09-20T22:51:19;10.50;69.80
9820;DHT22;4949;48.482;9.206;2022-09-20T22:56:23;10.60;70.20
9820;DHT22;4949;48.482;9.206;2022-09-20T23:01:35;10.50;70.70
9820;DHT22;4949;48.482;9.206;2022-09-20T23:06:46;10.50;71.10
9820;DHT22;4949;48.482;9.206;2022-09-20T23:11:56;10.50;71.10
9820;DHT22;4949;48.482;9.206;2022-09-20T23:16:57;10.40;71.20
9820;DHT22;4949;48.482;9.206;2022-09-20T23:22:00;10.40;71.20
9820;DHT22;4949;48.482;9.206;2022-09-20T23:27:01;10.30;71.60
9820;DHT22;4949;48.482;9.206;2022-09-20T23:32:06;10.30;71.10
9820;DHT22;4949;48.482;9.206;2022-09-20T23:37:11;10.20;71.40
9820;DHT22;4949;48.482;9.206;2022-09-20T23:42:15;10.20;71.60
9820;DHT22;4949;48.482;9.206;2022-09-20T23:47:18;10.20;71.70
9820;DHT22;4949;48.482;9.206;2022-09-20T23:52:19;10.10;71.60
9820;DHT22;4949;48.482;9.206;2022-09-20T23:57:24;10.10;71.70
